Terminal Aerodrome Forecast
Issued by NWS

Home | Current Version | Previous Version | Text Only | Print | Product List | Glossary On
Versions: 1 2 3 4 5 6 7 8 9 10 11 12 13
802
FTUS46 KMFR 112320
TAFOTH
TAF
KOTH 112320Z 1200/1224 26008KT P6SM BKN080
     FM120200 VRB03KT P6SM OVC060
     FM120600 14005KT P6SM OVC050
     FM121100 16008KT P6SM -RA OVC040
     FM121500 24010KT P6SM -SHRA SCT020 OVC035=

USA.gov is the U.S. government's official web portal to all federal, state and local government web resources and services.